Barauna, Brazil
Current Conditions -  °F | °C
As of 12:00 PM on Monday 24 Nov 2014 (Local Time) from SBFZ Reporting Station
Few Clouds Few Clouds  
Wind Chill: 88°   Ceiling: Unl
Heat Index: 91°   Visibility: 6mi
Dew Point: 68°   Wind: 23mph
Humidity: 52%   Direction: 100°E
Pressure: 29.91"   Gusts: NA
Location:  5.08°S, 37.61°W
Report Text: SBFZ 241500Z 10020KT 9999 FEW025 31/20 Q1013
Loading
Personal Weather Stations






























Interactive Weather Map New forecast layout! Learn more

10-Day Weather Forecast

Advertisements
Track Severe Weather on mobile